createdAt,value
2023-03-31T00:00:35.003Z,82.18
2023-03-31T00:03:03.137Z,83.35
2023-03-31T00:05:33.358Z,81.83
2023-03-31T00:08:02.132Z,80.60
2023-03-31T00:10:30.125Z,81.15
2023-03-31T00:12:59.544Z,83.69
2023-03-31T00:15:28.087Z,86.61
2023-03-31T00:18:00.584Z,88.97
2023-03-31T00:20:30.030Z,93.96
2023-03-31T00:22:58.005Z,96.02
2023-03-31T00:25:26.123Z,98.56
2023-03-31T00:27:54.425Z,99.41
2023-03-31T00:30:24.091Z,100.00
2023-03-31T00:32:52.155Z,98.93
2023-03-31T00:35:20.404Z,100.00
2023-03-31T00:37:48.310Z,100.00
2023-03-31T00:40:16.404Z,100.00
2023-03-31T00:42:46.480Z,100.00
2023-03-31T00:45:28.787Z,100.00
2023-03-31T00:48:04.391Z,99.46
2023-03-31T00:50:36.340Z,100.00
2023-03-31T00:53:09.227Z,99.81
2023-03-31T00:55:41.541Z,99.41
2023-03-31T00:58:14.668Z,98.28
2023-03-31T01:00:44.292Z,98.43
2023-03-31T01:03:12.292Z,100.00
2023-03-31T01:05:44.024Z,98.90
2023-03-31T01:08:13.635Z,98.66
2023-03-31T01:10:44.682Z,96.86
2023-03-31T01:13:15.389Z,91.04
2023-03-31T01:15:45.578Z,94.51
2023-03-31T01:18:16.519Z,92.18
2023-03-31T01:21:06.589Z,95.62
2023-03-31T01:24:01.090Z,97.41
2023-03-31T01:26:44.242Z,97.75
2023-03-31T01:29:32.292Z,99.26
2023-03-31T01:32:52.449Z,100.00
2023-03-31T01:35:50.040Z,98.29
2023-03-31T01:39:02.768Z,100.00
2023-03-31T01:41:43.636Z,100.00
2023-03-31T01:44:23.690Z,100.00
2023-03-31T01:46:57.269Z,99.67
2023-03-31T01:49:35.693Z,100.00
2023-03-31T01:52:10.024Z,100.00
2023-03-31T01:54:45.718Z,100.00
2023-03-31T01:57:21.352Z,100.00
2023-03-31T01:59:58.697Z,100.00
2023-03-31T02:02:31.597Z,100.00
2023-03-31T02:05:03.414Z,100.00
2023-03-31T02:07:38.087Z,100.00
2023-03-31T02:10:11.967Z,100.00
2023-03-31T02:12:45.388Z,100.00
2023-03-31T02:15:19.558Z,100.00
2023-03-31T02:17:51.683Z,100.00
2023-03-31T02:20:24.006Z,100.00
2023-03-31T02:22:55.684Z,100.00
2023-03-31T02:25:26.497Z,100.00
2023-03-31T02:28:03.088Z,100.00
2023-03-31T02:30:37.760Z,100.00
2023-03-31T02:33:06.074Z,100.00
2023-03-31T02:35:35.145Z,100.00
2023-03-31T02:38:06.878Z,100.00
2023-03-31T02:40:35.271Z,100.00
2023-03-31T02:43:04.921Z,100.00
2023-03-31T02:45:42.713Z,100.00
2023-03-31T02:48:13.077Z,100.00
2023-03-31T02:51:02.357Z,100.00
2023-03-31T02:53:44.713Z,100.00
2023-03-31T02:56:28.447Z,100.00
2023-03-31T02:59:16.735Z,100.00
2023-03-31T03:01:59.530Z,100.00
2023-03-31T03:05:00.326Z,100.00
2023-03-31T03:07:37.708Z,100.00
2023-03-31T03:10:11.290Z,100.00
2023-03-31T03:12:49.856Z,100.00
2023-03-31T03:15:25.788Z,100.00
2023-03-31T03:17:55.789Z,100.00
2023-03-31T03:20:23.879Z,100.00
2023-03-31T03:22:52.351Z,100.00
2023-03-31T03:25:20.912Z,100.00
2023-03-31T03:27:49.072Z,100.00
2023-03-31T03:30:17.118Z,100.00
2023-03-31T03:32:46.556Z,100.00
2023-03-31T03:35:14.803Z,100.00
2023-03-31T03:37:42.703Z,100.00
2023-03-31T03:40:11.903Z,100.00
2023-03-31T03:42:39.786Z,100.00
2023-03-31T03:45:08.909Z,100.00
2023-03-31T03:47:37.239Z,100.00
2023-03-31T03:50:07.758Z,100.00
2023-03-31T03:52:35.636Z,100.00
2023-03-31T03:55:03.636Z,100.00
2023-03-31T03:57:31.645Z,100.00
2023-03-31T03:59:59.611Z,100.00
2023-03-31T04:02:28.886Z,100.00
2023-03-31T04:04:57.128Z,100.00
2023-03-31T04:07:27.106Z,100.00
2023-03-31T04:09:56.622Z,100.00
2023-03-31T04:12:24.497Z,100.00
2023-03-31T04:14:52.653Z,100.00
2023-03-31T04:17:32.542Z,100.00
2023-03-31T04:20:01.961Z,100.00
2023-03-31T04:22:35.358Z,100.00
2023-03-31T04:25:04.404Z,100.00
2023-03-31T04:27:32.941Z,100.00
2023-03-31T04:30:01.714Z,100.00
2023-03-31T04:32:33.179Z,100.00
2023-03-31T04:35:05.087Z,100.00
2023-03-31T04:37:34.813Z,100.00
2023-03-31T04:40:09.374Z,100.00
2023-03-31T04:42:37.308Z,100.00
2023-03-31T04:45:06.085Z,100.00
2023-03-31T04:47:34.371Z,100.00
2023-03-31T04:50:02.372Z,100.00
2023-03-31T04:52:30.453Z,100.00
2023-03-31T04:54:59.732Z,100.00
2023-03-31T04:57:27.957Z,100.00
2023-03-31T04:59:56.106Z,100.00
2023-03-31T05:02:25.506Z,100.00
2023-03-31T05:04:53.973Z,100.00
2023-03-31T05:07:21.846Z,100.00
2023-03-31T05:09:49.805Z,100.00
2023-03-31T05:12:19.126Z,100.00
2023-03-31T05:14:47.028Z,100.00
2023-03-31T05:17:14.956Z,100.00
2023-03-31T05:19:42.916Z,100.00
2023-03-31T05:22:10.880Z,100.00
2023-03-31T05:24:38.910Z,100.00
2023-03-31T05:27:09.204Z,100.00
2023-03-31T05:29:38.473Z,100.00
2023-03-31T05:32:06.813Z,100.00
2023-03-31T05:34:34.741Z,100.00
2023-03-31T05:37:02.676Z,100.00
2023-03-31T05:39:33.033Z,100.00
2023-03-31T05:42:01.375Z,100.00
2023-03-31T05:44:29.253Z,100.00
2023-03-31T05:46:58.574Z,100.00
2023-03-31T05:49:26.496Z,100.00
2023-03-31T05:51:54.468Z,100.00
2023-03-31T05:54:22.822Z,100.00
2023-03-31T05:56:50.850Z,100.00
2023-03-31T05:59:20.411Z,100.00
2023-03-31T06:01:48.467Z,100.00
2023-03-31T06:04:18.348Z,100.00
2023-03-31T06:06:46.419Z,100.00
2023-03-31T06:09:14.294Z,100.00
2023-03-31T06:11:42.219Z,100.00
2023-03-31T06:14:10.165Z,100.00
2023-03-31T06:16:38.074Z,100.00
2023-03-31T06:19:06.072Z,100.00
2023-03-31T06:21:35.466Z,100.00
2023-03-31T06:24:03.436Z,100.00
2023-03-31T06:26:31.636Z,100.00
2023-03-31T06:28:59.991Z,100.00
2023-03-31T06:31:28.041Z,100.00
2023-03-31T06:33:56.080Z,100.00
2023-03-31T06:36:24.067Z,100.00
2023-03-31T06:38:53.365Z,100.00
2023-03-31T06:41:22.571Z,100.00
2023-03-31T06:43:50.963Z,100.00
2023-03-31T06:46:19.265Z,100.00
2023-03-31T06:48:47.241Z,100.00
2023-03-31T06:51:15.333Z,100.00
2023-03-31T06:53:43.249Z,100.00
2023-03-31T06:56:12.580Z,100.00
2023-03-31T06:58:40.666Z,100.00
2023-03-31T07:01:09.095Z,100.00
2023-03-31T07:03:37.370Z,100.00
2023-03-31T07:06:05.557Z,100.00
2023-03-31T07:08:33.490Z,100.00
2023-03-31T07:11:03.134Z,100.00
2023-03-31T07:13:32.718Z,100.00
2023-03-31T07:16:00.897Z,100.00
2023-03-31T07:18:34.300Z,100.00
2023-03-31T07:21:05.786Z,100.00
2023-03-31T07:23:36.507Z,100.00
2023-03-31T07:26:04.665Z,100.00
2023-03-31T07:28:34.394Z,100.00
2023-03-31T07:31:02.715Z,100.00
2023-03-31T07:33:31.185Z,100.00
2023-03-31T07:36:10.974Z,100.00
2023-03-31T07:38:41.440Z,100.00
2023-03-31T07:41:13.301Z,100.00
2023-03-31T07:43:42.851Z,100.00
2023-03-31T07:46:16.260Z,99.76
2023-03-31T07:48:44.281Z,98.89
2023-03-31T07:51:12.174Z,97.58
2023-03-31T07:53:40.040Z,96.62
2023-03-31T07:56:08.257Z,96.50
2023-03-31T07:58:36.491Z,97.34
2023-03-31T08:01:06.492Z,96.46
2023-03-31T08:03:34.706Z,94.16
2023-03-31T08:06:02.732Z,92.35
2023-03-31T08:08:30.698Z,89.95
2023-03-31T08:10:58.742Z,89.66
2023-03-31T08:13:27.136Z,87.98
2023-03-31T08:15:55.042Z,87.50
2023-03-31T08:18:24.400Z,85.52
2023-03-31T08:20:52.659Z,84.81
2023-03-31T08:23:20.992Z,86.45
2023-03-31T08:25:48.945Z,87.44
2023-03-31T08:28:17.640Z,87.22
2023-03-31T08:30:46.332Z,86.27
2023-03-31T08:33:14.314Z,86.01
2023-03-31T08:35:44.081Z,86.03
2023-03-31T08:38:12.023Z,83.25
2023-03-31T08:40:42.438Z,83.79
2023-03-31T08:43:18.626Z,82.52
2023-03-31T08:45:48.862Z,82.64
2023-03-31T08:48:26.020Z,81.94
2023-03-31T08:51:01.392Z,82.21
2023-03-31T08:53:33.495Z,82.15
2023-03-31T08:56:02.079Z,83.77
2023-03-31T08:58:37.190Z,83.35
2023-03-31T09:01:14.408Z,83.43
2023-03-31T09:03:53.709Z,83.34
2023-03-31T09:06:27.128Z,83.49
2023-03-31T09:08:59.768Z,83.13
2023-03-31T09:11:38.912Z,82.25
2023-03-31T09:14:27.044Z,79.52
2023-03-31T09:17:08.341Z,79.50
2023-03-31T09:19:41.593Z,76.00
2023-03-31T09:22:17.141Z,74.56
2023-03-31T09:24:53.100Z,73.88
2023-03-31T09:27:22.329Z,74.16
2023-03-31T09:29:54.495Z,72.55
2023-03-31T09:32:24.260Z,71.80
2023-03-31T09:34:55.093Z,71.15
2023-03-31T09:37:26.366Z,71.69
2023-03-31T09:39:54.387Z,69.89
2023-03-31T09:42:22.415Z,70.12
2023-03-31T09:44:51.346Z,69.80
2023-03-31T09:47:27.138Z,70.07
2023-03-31T09:49:59.086Z,69.92
2023-03-31T09:52:32.146Z,69.45
2023-03-31T09:55:02.864Z,68.45
2023-03-31T09:57:34.033Z,68.10
2023-03-31T10:00:11.054Z,68.18
2023-03-31T10:02:41.589Z,68.36
2023-03-31T10:05:23.702Z,67.33
2023-03-31T10:07:53.846Z,67.31
2023-03-31T10:10:30.191Z,66.92
2023-03-31T10:12:58.250Z,66.99
2023-03-31T10:15:29.057Z,66.49
2023-03-31T10:18:00.399Z,66.71
2023-03-31T10:20:38.707Z,67.07
2023-03-31T10:23:17.989Z,66.27
2023-03-31T10:25:47.671Z,66.10
2023-03-31T10:28:19.480Z,65.74
2023-03-31T10:30:50.833Z,65.16
2023-03-31T10:33:23.182Z,64.59
2023-03-31T10:35:55.681Z,64.46
2023-03-31T10:38:31.809Z,65.00
2023-03-31T10:41:01.064Z,64.99
2023-03-31T10:43:31.600Z,63.89
2023-03-31T10:46:01.353Z,65.02
2023-03-31T10:48:31.480Z,65.39
2023-03-31T10:51:02.147Z,67.36
2023-03-31T10:53:31.556Z,68.04
2023-03-31T10:56:31.853Z,68.30
2023-03-31T10:59:25.223Z,69.62
2023-03-31T11:02:17.549Z,68.92
2023-03-31T11:04:57.170Z,68.85
2023-03-31T11:07:54.346Z,68.13
2023-03-31T11:11:01.362Z,64.95
2023-03-31T11:13:36.382Z,65.24
2023-03-31T11:16:18.916Z,65.50
2023-03-31T11:19:03.484Z,64.52
2023-03-31T11:21:41.222Z,64.33
2023-03-31T11:24:19.170Z,63.91
2023-03-31T11:26:56.141Z,63.44
2023-03-31T11:29:34.610Z,63.38
2023-03-31T11:35:21.416Z,62.43
2023-03-31T11:38:04.547Z,63.66
2023-03-31T11:40:51.367Z,64.20
2023-03-31T11:43:28.885Z,64.60
2023-03-31T11:46:01.965Z,64.36
2023-03-31T11:48:37.664Z,64.48
2023-03-31T11:51:14.657Z,64.64
2023-03-31T11:53:46.415Z,63.75
2023-03-31T11:56:16.187Z,62.60
2023-03-31T11:58:48.518Z,62.71
2023-03-31T12:01:23.007Z,62.59
2023-03-31T12:03:58.526Z,63.11
2023-03-31T12:06:31.837Z,63.71
2023-03-31T12:09:16.855Z,62.84
2023-03-31T12:11:51.544Z,62.19
2023-03-31T12:14:30.932Z,60.86
2023-03-31T12:17:05.585Z,60.93
2023-03-31T12:19:41.902Z,61.73
2023-03-31T12:22:15.529Z,60.72
2023-03-31T12:24:43.608Z,58.77
2023-03-31T12:27:17.440Z,58.89
2023-03-31T12:29:49.437Z,59.16
2023-03-31T12:32:20.829Z,59.83
2023-03-31T12:34:56.654Z,59.52
2023-03-31T12:37:53.340Z,59.68
2023-03-31T12:40:32.474Z,60.77
2023-03-31T12:43:19.973Z,58.47
2023-03-31T12:45:56.420Z,57.49
2023-03-31T12:49:00.449Z,55.82
2023-03-31T12:51:45.615Z,56.06
2023-03-31T12:54:32.597Z,54.23
2023-03-31T12:57:21.905Z,54.04
2023-03-31T13:00:20.966Z,53.44
2023-03-31T13:02:51.371Z,53.80
2023-03-31T13:05:48.325Z,53.88
2023-03-31T13:08:55.553Z,53.38
2023-03-31T13:11:37.037Z,53.57
2023-03-31T13:14:07.977Z,52.37
2023-03-31T13:16:37.250Z,51.55
2023-03-31T13:19:06.969Z,50.44
2023-03-31T13:21:53.976Z,49.74
2023-03-31T13:24:24.365Z,48.92
2023-03-31T13:26:54.117Z,49.77
2023-03-31T13:29:26.420Z,50.24
2023-03-31T13:32:21.688Z,51.17
2023-03-31T13:34:59.773Z,49.84
2023-03-31T13:37:58.963Z,50.49
2023-03-31T13:40:47.609Z,49.62
2023-03-31T13:43:34.132Z,49.71
2023-03-31T13:46:34.158Z,49.47
2023-03-31T13:49:16.868Z,48.14
2023-03-31T13:51:54.836Z,48.53
2023-03-31T13:54:48.269Z,49.30
2023-03-31T13:57:54.077Z,50.39
2023-03-31T14:00:38.856Z,51.25
2023-03-31T14:03:27.678Z,51.31
2023-03-31T14:06:00.822Z,50.16
2023-03-31T14:08:46.135Z,49.73
2023-03-31T14:11:19.152Z,49.06
2023-03-31T14:14:00.444Z,47.97
2023-03-31T14:16:29.199Z,48.44
2023-03-31T14:19:06.861Z,48.33
2023-03-31T14:21:40.763Z,47.83
2023-03-31T14:24:21.392Z,47.65
2023-03-31T14:26:59.952Z,47.17
2023-03-31T14:29:37.529Z,46.96
2023-03-31T14:32:16.982Z,47.19
2023-03-31T14:34:55.474Z,46.39
2023-03-31T14:37:25.362Z,46.48
2023-03-31T14:39:56.826Z,46.23
2023-03-31T14:42:28.864Z,46.07
2023-03-31T14:44:58.130Z,46.07
2023-03-31T14:47:29.394Z,45.86
2023-03-31T14:50:02.784Z,46.50
2023-03-31T14:52:33.600Z,45.54
2023-03-31T14:55:03.046Z,45.67
2023-03-31T14:57:34.390Z,46.17
2023-03-31T15:00:07.710Z,46.21
2023-03-31T15:02:38.540Z,46.37
2023-03-31T15:05:09.971Z,46.32
2023-03-31T15:07:38.665Z,47.02
2023-03-31T15:10:09.606Z,46.88
2023-03-31T15:12:38.490Z,46.54
2023-03-31T15:15:08.453Z,47.16
2023-03-31T15:17:41.382Z,47.57
2023-03-31T15:20:31.782Z,48.30
2023-03-31T15:23:05.274Z,49.37
2023-03-31T15:25:40.406Z,49.99
2023-03-31T15:28:12.763Z,50.88
2023-03-31T15:30:40.931Z,50.98
2023-03-31T15:33:19.109Z,51.98
2023-03-31T15:35:47.873Z,51.83
2023-03-31T15:38:18.766Z,52.63
2023-03-31T15:40:53.936Z,52.01
2023-03-31T15:43:30.119Z,51.62
2023-03-31T15:45:59.316Z,50.39
2023-03-31T15:48:33.712Z,50.47
2023-03-31T15:51:03.786Z,50.07
2023-03-31T15:53:37.049Z,50.59
2023-03-31T15:56:07.769Z,49.68
2023-03-31T15:58:56.038Z,49.93
2023-03-31T16:01:29.434Z,49.43
2023-03-31T16:03:58.235Z,49.78
2023-03-31T16:06:35.996Z,49.37
2023-03-31T16:09:09.627Z,49.82
2023-03-31T16:11:42.583Z,50.56
2023-03-31T16:14:17.794Z,50.73
2023-03-31T16:16:51.958Z,50.70
2023-03-31T16:19:23.987Z,51.28
2023-03-31T16:21:55.453Z,51.70
2023-03-31T16:24:31.939Z,51.97
2023-03-31T16:27:06.262Z,52.78
2023-03-31T16:29:35.935Z,53.08
2023-03-31T16:32:12.619Z,54.18
2023-03-31T16:34:54.730Z,54.64
2023-03-31T16:37:23.193Z,55.16
2023-03-31T16:39:51.858Z,55.70
2023-03-31T16:42:21.980Z,55.74
2023-03-31T16:45:09.490Z,56.23
2023-03-31T16:47:38.694Z,57.09
2023-03-31T16:50:08.512Z,57.98
2023-03-31T16:52:37.209Z,59.21
2023-03-31T16:55:06.542Z,59.52
2023-03-31T16:57:36.902Z,59.51
2023-03-31T17:00:05.686Z,60.98
2023-03-31T17:02:34.843Z,62.35
2023-03-31T17:05:12.782Z,62.55
2023-03-31T17:07:41.359Z,66.14
2023-03-31T17:10:10.675Z,66.05
2023-03-31T17:12:40.720Z,66.95
2023-03-31T17:15:10.265Z,68.35
2023-03-31T17:17:38.409Z,70.50
2023-03-31T17:20:08.147Z,72.91
2023-03-31T17:22:36.673Z,74.09
2023-03-31T17:25:05.899Z,75.32
2023-03-31T17:27:33.923Z,76.54
2023-03-31T17:32:33.269Z,76.54
2023-03-31T17:35:02.331Z,77.47
2023-03-31T17:37:30.466Z,78.92
2023-03-31T17:39:58.369Z,80.45
2023-03-31T17:42:26.766Z,83.15
2023-03-31T17:44:54.706Z,83.18
2023-03-31T17:47:24.236Z,82.00
2023-03-31T17:49:52.229Z,82.34
2023-03-31T17:52:20.236Z,82.47
2023-03-31T17:54:50.322Z,82.76
2023-03-31T17:57:18.921Z,82.22
2023-03-31T17:59:49.534Z,81.19
2023-03-31T18:02:17.597Z,83.64
2023-03-31T18:04:47.140Z,84.11
2023-03-31T18:07:15.263Z,82.91
2023-03-31T18:09:44.042Z,83.44
2023-03-31T18:12:12.061Z,83.99
2023-03-31T18:14:40.480Z,85.34
2023-03-31T18:17:11.897Z,82.99
2023-03-31T18:19:39.829Z,81.64
2023-03-31T18:22:09.543Z,82.87
2023-03-31T18:24:38.497Z,82.30
2023-03-31T18:27:06.978Z,82.50
2023-03-31T18:29:34.902Z,82.86
2023-03-31T18:32:02.918Z,82.81
2023-03-31T18:34:31.214Z,84.62
2023-03-31T18:36:59.425Z,82.48
2023-03-31T18:39:29.328Z,84.33
2023-03-31T18:41:58.457Z,88.94
2023-03-31T18:44:31.578Z,90.18
2023-03-31T18:47:00.114Z,89.30
2023-03-31T18:49:28.281Z,87.72
2023-03-31T18:51:56.503Z,88.24
2023-03-31T18:54:24.503Z,89.35
2023-03-31T18:56:53.798Z,89.41
2023-03-31T18:59:22.177Z,90.14
2023-03-31T19:01:50.178Z,87.45
2023-03-31T19:04:18.138Z,88.11
2023-03-31T19:06:46.373Z,86.84
2023-03-31T19:09:14.384Z,87.75
2023-03-31T19:11:42.702Z,87.50
2023-03-31T19:14:12.456Z,89.18
2023-03-31T19:16:42.535Z,90.96
2023-03-31T19:19:10.883Z,91.77
2023-03-31T19:21:39.259Z,90.29
2023-03-31T19:24:07.647Z,90.76
2023-03-31T19:26:36.190Z,92.63
2023-03-31T19:29:06.011Z,91.89
2023-03-31T19:31:38.532Z,92.31
2023-03-31T19:34:07.962Z,92.29
2023-03-31T19:36:36.309Z,94.57
2023-03-31T19:39:06.609Z,94.46
2023-03-31T19:41:35.001Z,96.47
2023-03-31T19:44:02.992Z,96.53
2023-03-31T19:46:31.204Z,97.63
2023-03-31T19:49:00.800Z,98.60
2023-03-31T19:51:29.032Z,98.76
2023-03-31T19:53:57.544Z,100.00
2023-03-31T19:56:27.121Z,100.00
2023-03-31T19:58:55.162Z,100.00
2023-03-31T20:01:25.991Z,100.00
2023-03-31T20:03:56.006Z,100.00
2023-03-31T20:06:27.281Z,100.00
2023-03-31T20:08:56.674Z,100.00
2023-03-31T20:11:26.128Z,100.00
2023-03-31T20:13:55.154Z,100.00
2023-03-31T20:16:25.649Z,100.00
2023-03-31T20:18:55.117Z,100.00
2023-03-31T20:21:25.961Z,100.00
2023-03-31T20:23:53.972Z,100.00
2023-03-31T20:26:25.047Z,100.00
2023-03-31T20:28:55.032Z,100.00
2023-03-31T20:31:24.787Z,100.00
2023-03-31T20:33:53.815Z,100.00
2023-03-31T20:36:23.803Z,100.00
2023-03-31T20:38:54.878Z,100.00
2023-03-31T20:41:26.533Z,100.00
2023-03-31T20:43:55.170Z,100.00
2023-03-31T20:46:24.052Z,100.00
2023-03-31T20:48:54.988Z,100.00
2023-03-31T20:51:25.244Z,100.00
2023-03-31T20:53:56.642Z,100.00
2023-03-31T20:56:26.650Z,100.00
2023-03-31T20:58:55.159Z,100.00
2023-03-31T21:01:23.686Z,100.00
2023-03-31T21:03:52.317Z,100.00
2023-03-31T21:06:20.679Z,100.00
2023-03-31T21:08:53.378Z,100.00
2023-03-31T21:11:24.190Z,100.00
2023-03-31T21:13:53.367Z,100.00
2023-03-31T21:16:22.100Z,100.00
2023-03-31T21:18:51.514Z,100.00
2023-03-31T21:21:20.694Z,100.00
2023-03-31T21:23:49.692Z,100.00
2023-03-31T21:26:18.304Z,100.00
2023-03-31T21:28:48.230Z,100.00
2023-03-31T21:31:20.001Z,100.00
2023-03-31T21:33:48.517Z,100.00
2023-03-31T21:36:18.872Z,100.00
2023-03-31T21:38:47.037Z,100.00
2023-03-31T21:41:17.117Z,100.00
2023-03-31T21:43:46.064Z,100.00
2023-03-31T21:46:17.633Z,100.00
2023-03-31T21:48:46.078Z,100.00
2023-03-31T21:51:13.984Z,100.00
2023-03-31T21:53:42.078Z,100.00
2023-03-31T21:56:10.016Z,100.00
2023-03-31T21:58:37.936Z,100.00
2023-03-31T22:01:06.448Z,100.00
2023-03-31T22:03:36.708Z,100.00
2023-03-31T22:06:07.275Z,100.00
2023-03-31T22:08:36.573Z,100.00
2023-03-31T22:11:05.987Z,100.00
2023-03-31T22:13:33.994Z,100.00
2023-03-31T22:16:02.260Z,100.00
2023-03-31T22:18:30.656Z,100.00
2023-03-31T22:21:01.024Z,100.00
2023-03-31T22:23:29.063Z,100.00
2023-03-31T22:25:56.993Z,100.00
2023-03-31T22:28:25.027Z,100.00
2023-03-31T22:30:53.045Z,100.00
2023-03-31T22:33:20.963Z,100.00
2023-03-31T22:35:50.527Z,100.00
2023-03-31T22:38:19.892Z,100.00
2023-03-31T22:40:47.721Z,100.00
2023-03-31T22:43:15.682Z,100.00
2023-03-31T22:45:43.673Z,100.00
2023-03-31T22:48:25.519Z,100.00
2023-03-31T22:51:00.675Z,100.00
2023-03-31T22:53:29.976Z,100.00
2023-03-31T22:55:57.847Z,100.00
2023-03-31T22:58:25.950Z,100.00
2023-03-31T23:00:57.987Z,100.00
2023-03-31T23:03:26.414Z,100.00
2023-03-31T23:05:54.503Z,100.00
2023-03-31T23:08:22.407Z,100.00
2023-03-31T23:11:00.141Z,100.00
2023-03-31T23:13:29.386Z,100.00
2023-03-31T23:15:57.445Z,100.00
2023-03-31T23:18:25.722Z,100.00
2023-03-31T23:20:53.651Z,100.00
2023-03-31T23:23:21.555Z,100.00
2023-03-31T23:25:49.430Z,100.00
2023-03-31T23:28:18.741Z,100.00
2023-03-31T23:30:56.559Z,100.00
2023-03-31T23:33:24.902Z,100.00
2023-03-31T23:35:53.634Z,100.00
2023-03-31T23:38:21.709Z,100.00
2023-03-31T23:40:49.658Z,100.00
2023-03-31T23:43:18.954Z,100.00
2023-03-31T23:45:46.912Z,100.00
2023-03-31T23:48:14.812Z,100.00
2023-03-31T23:50:42.772Z,100.00
2023-03-31T23:53:10.797Z,100.00
2023-03-31T23:55:39.144Z,100.00
2023-03-31T23:58:07.796Z,100.00
